createdAt,value
2022-09-06T00:02:09.229Z,13.72
2022-09-06T00:05:18.598Z,13.71
2022-09-06T00:07:50.028Z,13.72
2022-09-06T00:10:25.354Z,13.71
2022-09-06T00:13:20.252Z,13.69
2022-09-06T00:16:33.371Z,13.66
2022-09-06T00:19:31.232Z,13.62
2022-09-06T00:21:59.504Z,13.56
2022-09-06T00:24:27.576Z,13.51
2022-09-06T00:27:11.578Z,13.47
2022-09-06T00:30:20.351Z,13.41
2022-09-06T00:33:26.278Z,13.31
2022-09-06T00:36:00.833Z,13.22
2022-09-06T00:38:56.558Z,13.15
2022-09-06T00:42:05.308Z,13.08
2022-09-06T00:45:14.306Z,13.05
2022-09-06T00:48:25.427Z,13.03
2022-09-06T00:51:23.790Z,13.00
2022-09-06T00:54:33.296Z,13.00
2022-09-06T00:57:09.893Z,13.03
2022-09-06T01:00:05.279Z,13.06
2022-09-06T01:03:22.428Z,13.08
2022-09-06T01:06:28.305Z,13.09
2022-09-06T01:09:26.953Z,13.10
2022-09-06T01:12:21.304Z,13.08
2022-09-06T01:15:22.820Z,13.08
2022-09-06T01:18:19.308Z,13.05
2022-09-06T01:21:33.323Z,13.01
2022-09-06T01:24:28.319Z,12.96
2022-09-06T01:27:34.255Z,12.89
2022-09-06T01:30:20.543Z,12.84
2022-09-06T01:33:15.261Z,12.81
2022-09-06T01:36:09.316Z,12.76
2022-09-06T01:39:18.284Z,12.69
2022-09-06T01:42:27.313Z,12.61
2022-09-06T01:45:28.367Z,12.52
2022-09-06T01:48:36.356Z,12.45
2022-09-06T01:51:43.245Z,12.40
2022-09-06T01:54:37.330Z,12.38
2022-09-06T01:57:40.169Z,12.36
2022-09-06T02:00:49.319Z,12.37
2022-09-06T02:04:00.220Z,12.34
2022-09-06T02:07:20.322Z,12.31
2022-09-06T02:10:26.326Z,12.30
2022-09-06T02:13:23.457Z,12.28
2022-09-06T02:16:08.165Z,12.27
2022-09-06T02:19:05.356Z,12.28
2022-09-06T02:22:07.304Z,12.31
2022-09-06T02:24:59.302Z,12.34
2022-09-06T02:31:01.420Z,12.35
2022-09-06T02:34:21.739Z,12.35
2022-09-06T02:36:50.324Z,12.29
2022-09-06T02:39:47.572Z,12.20
2022-09-06T02:42:31.667Z,12.13
2022-09-06T02:45:26.247Z,12.10
2022-09-06T02:48:28.011Z,12.06
2022-09-06T02:51:28.315Z,12.00
2022-09-06T02:54:22.246Z,11.92
2022-09-06T02:57:17.346Z,11.88
2022-09-06T03:00:24.295Z,11.85
2022-09-06T03:03:22.255Z,11.83
2022-09-06T03:06:10.350Z,11.83
2022-09-06T03:09:33.015Z,11.82
2022-09-06T03:12:13.018Z,11.82
2022-09-06T03:15:10.304Z,11.82
2022-09-06T03:18:24.311Z,11.85
2022-09-06T03:21:20.305Z,11.85
2022-09-06T03:24:18.395Z,11.86
2022-09-06T03:27:35.256Z,11.87
2022-09-06T03:30:50.390Z,11.89
2022-09-06T03:33:49.298Z,11.91
2022-09-06T03:37:19.276Z,11.90
2022-09-06T03:40:37.783Z,11.90
2022-09-06T03:43:26.440Z,11.87
2022-09-06T03:46:12.786Z,11.85
2022-09-06T03:48:56.153Z,11.83
2022-09-06T03:52:13.347Z,11.80
2022-09-06T03:55:12.273Z,11.77
2022-09-06T03:57:42.202Z,11.74
2022-09-06T04:00:40.509Z,11.71
2022-09-06T04:04:08.732Z,11.67
2022-09-06T04:07:48.398Z,11.61
2022-09-06T04:11:24.490Z,11.56
2022-09-06T04:14:33.347Z,11.57
2022-09-06T04:18:09.933Z,11.60
2022-09-06T04:21:08.789Z,11.69
2022-09-06T04:28:13.304Z,11.88
2022-09-06T04:31:49.708Z,11.95
2022-09-06T04:35:25.359Z,12.07
2022-09-06T04:38:32.144Z,12.21
2022-09-06T04:41:18.554Z,12.36
2022-09-06T04:43:47.208Z,12.51
2022-09-06T04:46:47.355Z,12.65
2022-09-06T04:50:10.260Z,12.79
2022-09-06T04:53:29.813Z,12.90
2022-09-06T04:56:59.887Z,13.05
2022-09-06T05:03:15.327Z,13.18
2022-09-06T05:09:54.282Z,13.10
2022-09-06T05:13:02.314Z,13.11
2022-09-06T05:15:56.246Z,13.15
2022-09-06T05:19:05.351Z,13.18
2022-09-06T05:22:13.278Z,13.18
2022-09-06T05:25:20.458Z,13.19
2022-09-06T05:28:35.456Z,13.25
2022-09-06T05:31:36.171Z,13.39
2022-09-06T05:34:31.427Z,13.60
2022-09-06T05:37:19.751Z,13.82
2022-09-06T05:40:38.892Z,14.04
2022-09-06T05:43:48.693Z,14.31
2022-09-06T05:47:07.720Z,14.53
2022-09-06T05:50:08.005Z,14.76
2022-09-06T05:52:49.440Z,14.85
2022-09-06T05:55:20.244Z,14.94
2022-09-06T05:57:49.589Z,15.00
2022-09-06T06:00:17.665Z,15.11
2022-09-06T06:02:50.126Z,15.17
2022-09-06T06:05:19.291Z,15.21
2022-09-06T06:07:47.418Z,15.27
2022-09-06T06:10:21.023Z,15.36
2022-09-06T06:12:50.063Z,15.41
2022-09-06T06:15:25.544Z,15.46
2022-09-06T06:17:53.715Z,15.46
2022-09-06T06:20:22.766Z,15.53
2022-09-06T06:22:50.988Z,15.58
2022-09-06T06:25:23.076Z,15.68
2022-09-06T06:27:58.091Z,15.77
2022-09-06T06:30:28.617Z,15.83
2022-09-06T06:32:59.930Z,15.86
2022-09-06T06:36:26.889Z,15.88
2022-09-06T06:39:15.007Z,15.91
2022-09-06T06:41:50.806Z,16.02
2022-09-06T06:44:29.826Z,16.01
2022-09-06T06:47:02.729Z,16.01
2022-09-06T06:49:36.598Z,15.95
2022-09-06T06:52:05.017Z,15.87
2022-09-06T06:54:44.416Z,15.76
2022-09-06T06:57:32.105Z,15.70
2022-09-06T07:00:05.122Z,15.59
2022-09-06T07:02:36.974Z,15.46
2022-09-06T07:09:15.929Z,15.55
2022-09-06T07:30:13.153Z,15.61
2022-09-06T07:32:56.315Z,15.70
2022-09-06T07:36:21.629Z,15.77
2022-09-06T07:39:55.014Z,15.81
2022-09-06T07:44:10.163Z,15.91
2022-09-06T08:34:43.163Z,18.56
2022-09-06T08:38:00.536Z,18.79
2022-09-06T08:40:54.011Z,18.96
2022-09-06T08:51:15.232Z,19.78
2022-09-06T08:55:00.149Z,19.89
2022-09-06T09:06:18.092Z,20.14
2022-09-06T09:09:09.816Z,20.20
2022-09-06T09:15:17.837Z,20.46
2022-09-06T09:18:02.044Z,20.38
2022-09-06T09:24:08.288Z,20.84
2022-09-06T09:27:04.988Z,21.07
2022-09-06T09:33:07.209Z,21.48
2022-09-06T09:36:07.654Z,21.39
2022-09-06T09:38:53.037Z,21.30
2022-09-06T09:41:39.831Z,21.52
2022-09-06T09:44:17.304Z,21.71
2022-09-06T09:46:45.764Z,21.73
2022-09-06T09:49:29.254Z,21.84
2022-09-06T09:52:15.995Z,21.92
2022-09-06T09:54:46.340Z,22.00
2022-09-06T09:57:19.089Z,21.86
2022-09-06T10:00:02.109Z,21.87
2022-09-06T10:02:39.768Z,22.12
2022-09-06T10:05:20.274Z,22.31
2022-09-06T10:07:55.418Z,22.31
2022-09-06T10:10:26.868Z,22.43
2022-09-06T10:13:34.449Z,22.67
2022-09-06T10:16:06.308Z,22.86
2022-09-06T10:18:38.561Z,23.00
2022-09-06T10:21:13.569Z,23.09
2022-09-06T10:24:47.192Z,23.17
2022-09-06T10:28:46.632Z,23.28
2022-09-06T10:32:06.419Z,23.34
2022-09-06T10:34:57.735Z,23.04
2022-09-06T10:37:49.711Z,22.74
2022-09-06T10:40:32.891Z,22.86
2022-09-06T10:43:09.025Z,22.98
2022-09-06T10:45:56.659Z,23.00
2022-09-06T10:48:33.684Z,23.00
2022-09-06T10:51:14.843Z,22.81
2022-09-06T10:54:06.778Z,22.55
2022-09-06T10:56:44.980Z,22.45
2022-09-06T11:02:44.831Z,22.55
2022-09-06T11:11:25.076Z,22.54
2022-09-06T11:13:53.515Z,22.65
2022-09-06T11:16:29.032Z,22.64
2022-09-06T11:19:10.168Z,22.66
2022-09-06T11:21:58.707Z,22.76
2022-09-06T11:24:41.104Z,22.99
2022-09-06T11:27:38.365Z,23.23
2022-09-06T11:30:19.005Z,23.29
2022-09-06T11:32:58.395Z,23.40
2022-09-06T11:35:35.046Z,23.53
2022-09-06T11:38:27.019Z,23.67
2022-09-06T11:41:06.339Z,23.73
2022-09-06T11:43:59.752Z,23.94
2022-09-06T11:46:57.677Z,24.22
2022-09-06T11:49:33.005Z,24.45
2022-09-06T11:52:02.448Z,24.65
2022-09-06T11:54:44.390Z,24.76
2022-09-06T11:57:22.613Z,24.25
2022-09-06T12:00:00.944Z,24.31
2022-09-06T12:02:46.615Z,24.30
2022-09-06T12:05:29.628Z,24.61
2022-09-06T12:08:26.623Z,24.58
2022-09-06T12:11:03.314Z,24.30
2022-09-06T12:13:59.535Z,24.43
2022-09-06T12:20:54.653Z,24.40
2022-09-06T12:23:42.289Z,24.45
2022-09-06T12:26:12.411Z,24.84
2022-09-06T12:28:51.294Z,25.33
2022-09-06T12:31:36.482Z,25.73
2022-09-06T12:34:19.331Z,26.20
2022-09-06T12:36:54.258Z,26.71
2022-09-06T12:39:23.195Z,26.46
2022-09-06T12:41:57.459Z,27.13
2022-09-06T12:44:31.762Z,27.46
2022-09-06T12:47:07.037Z,27.19
2022-09-06T12:49:35.901Z,27.76
2022-09-06T12:52:10.659Z,28.39
2022-09-06T12:54:49.320Z,29.10
2022-09-06T12:57:21.426Z,29.58
2022-09-06T12:59:54.472Z,30.22
2022-09-06T13:02:41.311Z,30.72
2022-09-06T13:05:12.566Z,30.70
2022-09-06T13:07:45.820Z,30.45
2022-09-06T13:10:18.090Z,29.82
2022-09-06T13:12:50.625Z,29.64
2022-09-06T13:15:25.247Z,30.58
2022-09-06T13:18:13.906Z,31.23
2022-09-06T13:20:42.809Z,31.74
2022-09-06T13:23:20.222Z,31.79
2022-09-06T13:25:55.092Z,31.84
2022-09-06T13:28:30.011Z,32.30
2022-09-06T13:31:20.935Z,32.34
2022-09-06T13:33:57.905Z,32.78
2022-09-06T13:36:31.804Z,32.72
2022-09-06T13:39:03.788Z,32.76
2022-09-06T13:41:38.286Z,32.82
2022-09-06T13:44:21.535Z,33.12
2022-09-06T13:46:55.209Z,33.55
2022-09-06T13:49:43.770Z,33.67
2022-09-06T13:52:12.209Z,33.82
2022-09-06T13:54:49.026Z,34.00
2022-09-06T13:57:29.325Z,34.22
2022-09-06T14:00:20.885Z,33.73
2022-09-06T14:02:51.287Z,34.20
2022-09-06T14:05:19.240Z,34.43
2022-09-06T14:08:18.471Z,34.80
2022-09-06T14:10:51.497Z,34.98
2022-09-06T14:14:04.760Z,34.76
2022-09-06T14:16:48.069Z,35.12
2022-09-06T14:19:30.590Z,34.90
2022-09-06T14:22:06.106Z,34.73
2022-09-06T14:24:37.909Z,34.89
2022-09-06T14:27:09.287Z,35.01
2022-09-06T14:29:52.032Z,35.04
2022-09-06T14:32:42.878Z,34.65
2022-09-06T14:36:25.577Z,34.81
2022-09-06T14:39:20.121Z,34.48
2022-09-06T14:41:51.853Z,34.23
2022-09-06T14:45:21.051Z,34.13
2022-09-06T14:48:18.055Z,32.99
2022-09-06T14:51:28.998Z,32.94
2022-09-06T14:54:03.483Z,32.66
2022-09-06T14:57:14.143Z,33.18
2022-09-06T14:59:42.094Z,34.26
2022-09-06T15:02:10.463Z,33.98
2022-09-06T15:04:38.635Z,33.60
2022-09-06T15:07:20.437Z,33.78
2022-09-06T15:09:50.915Z,33.23
2022-09-06T15:12:19.532Z,32.91
2022-09-06T15:14:51.588Z,31.75
2022-09-06T15:17:40.112Z,30.83
2022-09-06T15:20:12.476Z,29.83
2022-09-06T15:23:24.271Z,29.41
2022-09-06T15:26:09.118Z,28.75
2022-09-06T15:28:39.838Z,28.61
2022-09-06T15:31:24.141Z,28.96
2022-09-06T15:34:01.430Z,29.61
2022-09-06T15:36:33.284Z,29.84
2022-09-06T15:39:03.126Z,29.67
2022-09-06T15:41:43.922Z,29.25
2022-09-06T15:44:17.239Z,29.32
2022-09-06T15:46:55.252Z,29.23
2022-09-06T15:49:53.069Z,29.38
2022-09-06T15:53:08.506Z,29.53
2022-09-06T15:56:05.234Z,29.45
2022-09-06T15:58:35.639Z,28.68
2022-09-06T16:01:25.318Z,27.96
2022-09-06T16:03:55.788Z,27.19
2022-09-06T16:06:29.928Z,26.74
2022-09-06T16:09:04.403Z,26.41
2022-09-06T16:11:36.549Z,25.98
2022-09-06T16:14:08.776Z,25.37
2022-09-06T16:17:06.000Z,24.80
2022-09-06T16:20:13.739Z,24.48
2022-09-06T16:23:05.121Z,24.11
2022-09-06T16:26:33.449Z,23.78
2022-09-06T16:29:40.315Z,23.57
2022-09-06T16:32:35.444Z,23.20
2022-09-06T16:35:50.189Z,22.91
2022-09-06T16:38:39.988Z,22.63
2022-09-06T16:41:24.830Z,22.35
2022-09-06T16:44:20.278Z,22.12
2022-09-06T16:47:36.126Z,21.88
2022-09-06T16:50:33.537Z,21.63
2022-09-06T16:53:45.450Z,21.46
2022-09-06T16:56:19.655Z,21.34
2022-09-06T16:58:52.444Z,21.17
2022-09-06T17:01:22.793Z,20.98
2022-09-06T17:04:14.344Z,20.79
2022-09-06T17:07:46.578Z,20.61
2022-09-06T17:10:14.537Z,20.37
2022-09-06T17:12:43.679Z,20.23
2022-09-06T17:15:11.657Z,20.11
2022-09-06T17:17:39.609Z,20.00
2022-09-06T17:20:08.404Z,19.89
2022-09-06T17:22:37.593Z,19.81
2022-09-06T17:25:08.111Z,19.73
2022-09-06T17:27:35.955Z,19.62
2022-09-06T17:30:05.057Z,19.52
2022-09-06T17:32:33.005Z,19.44
2022-09-06T17:35:00.839Z,19.37
2022-09-06T17:37:29.121Z,19.30
2022-09-06T17:39:57.235Z,19.21
2022-09-06T17:42:25.736Z,19.09
2022-09-06T17:44:54.165Z,18.94
2022-09-06T17:47:25.299Z,18.81
2022-09-06T17:49:53.565Z,18.67
2022-09-06T17:52:21.904Z,18.52
2022-09-06T17:54:51.252Z,18.37
2022-09-06T17:57:19.381Z,18.22
2022-09-06T17:59:49.999Z,18.07
2022-09-06T18:02:18.125Z,17.97
2022-09-06T18:04:46.362Z,17.86
2022-09-06T18:07:14.536Z,17.77
2022-09-06T18:09:42.869Z,17.67
2022-09-06T18:12:11.087Z,17.58
2022-09-06T18:14:39.354Z,17.49
2022-09-06T18:21:16.937Z,17.27
2022-09-06T18:24:37.244Z,17.16
2022-09-06T18:38:52.082Z,16.78
2022-09-06T18:43:11.918Z,16.71
2022-09-06T18:50:16.109Z,16.51
2022-09-06T18:52:44.156Z,16.44
2022-09-06T18:55:12.169Z,16.38
2022-09-06T18:57:40.158Z,16.33
2022-09-06T19:00:09.658Z,16.28
2022-09-06T19:02:38.063Z,16.29
2022-09-06T19:05:06.631Z,16.30
2022-09-06T19:07:34.632Z,16.29
2022-09-06T19:10:02.983Z,16.27
2022-09-06T19:12:31.420Z,16.23
2022-09-06T19:14:59.248Z,16.18
2022-09-06T19:17:27.571Z,16.14
2022-09-06T19:19:55.580Z,16.11
2022-09-06T19:22:23.743Z,16.09
2022-09-06T19:24:51.583Z,16.05
2022-09-06T19:27:19.683Z,15.98
2022-09-06T19:29:48.168Z,15.90
2022-09-06T19:32:18.644Z,15.82
2022-09-06T19:34:46.475Z,15.73
2022-09-06T19:37:17.302Z,15.67
2022-09-06T19:39:45.234Z,15.61
2022-09-06T19:42:13.038Z,15.59
2022-09-06T19:44:41.097Z,15.54
2022-09-06T19:47:09.061Z,15.52
2022-09-06T19:49:37.017Z,15.49
2022-09-06T19:52:09.805Z,15.46
2022-09-06T19:54:38.759Z,15.43
2022-09-06T19:57:21.776Z,15.40
2022-09-06T19:59:54.755Z,15.35
2022-09-06T20:02:25.420Z,15.28
2022-09-06T20:04:53.609Z,15.20
2022-09-06T20:07:22.347Z,15.14
2022-09-06T20:09:52.593Z,15.08
2022-09-06T20:12:41.312Z,15.05
2022-09-06T20:15:49.568Z,15.04
2022-09-06T20:18:34.862Z,15.08
2022-09-06T20:21:05.663Z,15.09
2022-09-06T20:23:45.534Z,15.08
2022-09-06T20:26:33.501Z,15.10
2022-09-06T20:29:11.974Z,15.11
2022-09-06T20:31:50.066Z,15.10
2022-09-06T20:34:21.460Z,15.07
2022-09-06T20:36:49.737Z,15.04
2022-09-06T20:39:22.225Z,15.00
2022-09-06T20:42:10.449Z,14.95
2022-09-06T20:44:38.694Z,14.89
2022-09-06T20:47:07.431Z,14.83
2022-09-06T20:49:37.250Z,14.75
2022-09-06T20:52:05.759Z,14.68
2022-09-06T20:54:37.036Z,14.63
2022-09-06T20:57:13.094Z,14.60
2022-09-06T20:59:43.214Z,14.58
2022-09-06T21:02:11.729Z,14.55
2022-09-06T21:04:39.974Z,14.51
2022-09-06T21:07:28.641Z,14.47
2022-09-06T21:09:57.876Z,14.45
2022-09-06T21:12:29.930Z,14.43
2022-09-06T21:15:06.573Z,14.43
2022-09-06T21:17:38.680Z,14.43
2022-09-06T21:20:07.830Z,14.42
2022-09-06T21:22:36.203Z,14.41
2022-09-06T21:25:28.647Z,14.41
2022-09-06T21:27:58.156Z,14.42
2022-09-06T21:30:26.329Z,14.43
2022-09-06T21:32:58.388Z,14.45
2022-09-06T21:35:34.454Z,14.46
2022-09-06T21:38:26.096Z,14.47
2022-09-06T21:40:54.534Z,14.46
2022-09-06T21:43:22.868Z,14.45
2022-09-06T21:45:51.562Z,14.43
2022-09-06T21:48:23.987Z,14.43
2022-09-06T21:50:54.728Z,14.46
2022-09-06T21:53:27.920Z,14.50
2022-09-06T21:56:27.683Z,14.52
2022-09-06T22:03:21.131Z,14.64
2022-09-06T22:10:10.764Z,14.77
2022-09-06T22:13:42.517Z,14.84
2022-09-06T22:17:04.888Z,14.89
2022-09-06T22:20:17.971Z,14.88
2022-09-06T22:26:50.519Z,14.81
2022-09-06T22:30:04.376Z,14.77
2022-09-06T22:33:15.006Z,14.71
2022-09-06T22:36:28.850Z,14.64
2022-09-06T22:39:10.058Z,14.61
2022-09-06T22:41:38.625Z,14.57
2022-09-06T22:44:27.993Z,14.55
2022-09-06T22:46:57.282Z,14.53
2022-09-06T22:49:25.675Z,14.51
2022-09-06T22:52:13.924Z,14.49
2022-09-06T22:54:42.822Z,14.47
2022-09-06T22:57:21.199Z,14.51
2022-09-06T22:59:52.356Z,14.54
2022-09-06T23:02:40.313Z,14.59
2022-09-06T23:05:09.185Z,14.67
2022-09-06T23:08:06.552Z,14.72
2022-09-06T23:11:14.759Z,14.70
2022-09-06T23:13:44.701Z,14.63
2022-09-06T23:16:17.244Z,14.61
2022-09-06T23:18:48.014Z,14.65
2022-09-06T23:21:36.658Z,14.72
2022-09-06T23:24:07.678Z,14.77
2022-09-06T23:26:43.748Z,14.80
2022-09-06T23:29:13.055Z,14.83
2022-09-06T23:31:42.656Z,14.83
2022-09-06T23:34:24.413Z,14.81
2022-09-06T23:37:25.550Z,14.77
2022-09-06T23:40:10.515Z,14.70
2022-09-06T23:42:38.540Z,14.65
2022-09-06T23:45:21.862Z,14.61
2022-09-06T23:48:17.212Z,14.54
2022-09-06T23:50:54.360Z,14.50
2022-09-06T23:53:22.909Z,14.46
2022-09-06T23:55:51.030Z,14.40
2022-09-06T23:58:19.072Z,14.37
